sensor_id;sensor_type;location;lat;lon;timestamp;temperature;humidity
76785;SHT30;66893;44.316;0.092;2023-01-24T00:01:39;10.49;52.38
76785;SHT30;66893;44.316;0.092;2023-01-24T00:04:05;10.49;52.37
76785;SHT30;66893;44.316;0.092;2023-01-24T00:06:30;10.49;52.40
76785;SHT30;66893;44.316;0.092;2023-01-24T00:08:56;10.48;52.41
76785;SHT30;66893;44.316;0.092;2023-01-24T00:11:21;10.49;52.43
76785;SHT30;66893;44.316;0.092;2023-01-24T00:13:47;10.45;52.44
76785;SHT30;66893;44.316;0.092;2023-01-24T00:18:39;10.46;52.47
76785;SHT30;66893;44.316;0.092;2023-01-24T00:21:14;10.49;52.45
76785;SHT30;66893;44.316;0.092;2023-01-24T00:23:42;10.48;52.46
76785;SHT30;66893;44.316;0.092;2023-01-24T00:26:08;10.49;52.43
76785;SHT30;66893;44.316;0.092;2023-01-24T00:28:34;10.48;52.48
76785;SHT30;66893;44.316;0.092;2023-01-24T00:30:59;10.46;52.47
76785;SHT30;66893;44.316;0.092;2023-01-24T00:33:25;10.48;52.50
76785;SHT30;66893;44.316;0.092;2023-01-24T00:35:51;10.48;52.50
76785;SHT30;66893;44.316;0.092;2023-01-24T00:38:17;10.46;52.47
76785;SHT30;66893;44.316;0.092;2023-01-24T00:40:43;10.46;52.52
76785;SHT30;66893;44.316;0.092;2023-01-24T00:43:09;10.45;52.55
76785;SHT30;66893;44.316;0.092;2023-01-24T00:45:36;10.45;52.52
76785;SHT30;66893;44.316;0.092;2023-01-24T00:48:03;10.46;52.55
76785;SHT30;66893;44.316;0.092;2023-01-24T00:50:28;10.46;52.55
76785;SHT30;66893;44.316;0.092;2023-01-24T00:52:54;10.49;52.56
76785;SHT30;66893;44.316;0.092;2023-01-24T00:55:19;10.49;52.56
76785;SHT30;66893;44.316;0.092;2023-01-24T00:57:44;10.46;52.57
76785;SHT30;66893;44.316;0.092;2023-01-24T01:00:10;10.46;52.58
76785;SHT30;66893;44.316;0.092;2023-01-24T01:02:37;10.46;52.57
76785;SHT30;66893;44.316;0.092;2023-01-24T01:05:03;10.48;52.59
76785;SHT30;66893;44.316;0.092;2023-01-24T01:07:28;10.49;52.61
76785;SHT30;66893;44.316;0.092;2023-01-24T01:09:54;10.48;52.60
76785;SHT30;66893;44.316;0.092;2023-01-24T01:12:19;10.49;52.61
76785;SHT30;66893;44.316;0.092;2023-01-24T01:14:44;10.46;52.60
76785;SHT30;66893;44.316;0.092;2023-01-24T01:17:10;10.46;52.65
76785;SHT30;66893;44.316;0.092;2023-01-24T01:19:35;10.48;52.61
76785;SHT30;66893;44.316;0.092;2023-01-24T01:22:01;10.48;52.63
76785;SHT30;66893;44.316;0.092;2023-01-24T01:24:26;10.45;52.64
76785;SHT30;66893;44.316;0.092;2023-01-24T01:26:52;10.46;52.64
76785;SHT30;66893;44.316;0.092;2023-01-24T01:29:17;10.48;52.64
76785;SHT30;66893;44.316;0.092;2023-01-24T01:31:43;10.46;52.71
76785;SHT30;66893;44.316;0.092;2023-01-24T01:34:10;10.46;52.66
76785;SHT30;66893;44.316;0.092;2023-01-24T01:36:35;10.46;52.70
76785;SHT30;66893;44.316;0.092;2023-01-24T01:39:01;10.46;52.63
76785;SHT30;66893;44.316;0.092;2023-01-24T01:41:26;10.46;52.69
76785;SHT30;66893;44.316;0.092;2023-01-24T01:43:52;10.49;52.67
76785;SHT30;66893;44.316;0.092;2023-01-24T01:46:56;10.48;52.65
76785;SHT30;66893;44.316;0.092;2023-01-24T01:49:25;10.46;52.66
76785;SHT30;66893;44.316;0.092;2023-01-24T01:51:56;10.48;52.66
76785;SHT30;66893;44.316;0.092;2023-01-24T01:54:26;10.48;52.65
76785;SHT30;66893;44.316;0.092;2023-01-24T01:57:14;10.48;52.66
76785;SHT30;66893;44.316;0.092;2023-01-24T01:59:49;10.45;52.69
76785;SHT30;66893;44.316;0.092;2023-01-24T02:02:18;10.48;52.71
76785;SHT30;66893;44.316;0.092;2023-01-24T02:04:48;10.48;52.71
76785;SHT30;66893;44.316;0.092;2023-01-24T02:07:19;10.46;52.71
76785;SHT30;66893;44.316;0.092;2023-01-24T02:09:49;10.45;52.71
76785;SHT30;66893;44.316;0.092;2023-01-24T02:12:23;10.49;52.70
76785;SHT30;66893;44.316;0.092;2023-01-24T02:14:56;10.48;52.68
76785;SHT30;66893;44.316;0.092;2023-01-24T02:17:41;10.46;52.69
76785;SHT30;66893;44.316;0.092;2023-01-24T02:26:03;10.48;52.74
76785;SHT30;66893;44.316;0.092;2023-01-24T02:28:29;10.46;52.72
76785;SHT30;66893;44.316;0.092;2023-01-24T02:30:58;10.48;52.79
76785;SHT30;66893;44.316;0.092;2023-01-24T02:33:24;10.45;52.81
76785;SHT30;66893;44.316;0.092;2023-01-24T02:35:50;10.46;52.74
76785;SHT30;66893;44.316;0.092;2023-01-24T02:38:26;10.45;52.76
76785;SHT30;66893;44.316;0.092;2023-01-24T02:40:56;10.46;52.81
76785;SHT30;66893;44.316;0.092;2023-01-24T02:43:25;10.48;52.80
76785;SHT30;66893;44.316;0.092;2023-01-24T02:45:52;10.45;52.84
76785;SHT30;66893;44.316;0.092;2023-01-24T02:48:18;10.48;52.82
76785;SHT30;66893;44.316;0.092;2023-01-24T02:50:43;10.49;52.83
76785;SHT30;66893;44.316;0.092;2023-01-24T02:53:27;10.48;52.85
76785;SHT30;66893;44.316;0.092;2023-01-24T02:56:08;10.46;52.87
76785;SHT30;66893;44.316;0.092;2023-01-24T02:58:52;10.45;52.86
76785;SHT30;66893;44.316;0.092;2023-01-24T03:01:19;10.48;52.89
76785;SHT30;66893;44.316;0.092;2023-01-24T03:03:45;10.48;52.89
76785;SHT30;66893;44.316;0.092;2023-01-24T03:06:12;10.43;52.93
76785;SHT30;66893;44.316;0.092;2023-01-24T03:08:38;10.49;52.88
76785;SHT30;66893;44.316;0.092;2023-01-24T03:11:05;10.45;52.90
76785;SHT30;66893;44.316;0.092;2023-01-24T03:13:30;10.48;52.85
76785;SHT30;66893;44.316;0.092;2023-01-24T03:16:14;10.46;52.85
76785;SHT30;66893;44.316;0.092;2023-01-24T03:18:58;10.48;52.87
76785;SHT30;66893;44.316;0.092;2023-01-24T03:21:43;10.48;52.89
76785;SHT30;66893;44.316;0.092;2023-01-24T03:24:26;10.46;52.85
76785;SHT30;66893;44.316;0.092;2023-01-24T03:27:10;10.46;52.89
76785;SHT30;66893;44.316;0.092;2023-01-24T03:29:55;10.46;52.90
76785;SHT30;66893;44.316;0.092;2023-01-24T03:32:39;10.45;52.89
76785;SHT30;66893;44.316;0.092;2023-01-24T03:35:24;10.45;52.89
76785;SHT30;66893;44.316;0.092;2023-01-24T03:37:49;10.45;52.93
76785;SHT30;66893;44.316;0.092;2023-01-24T03:40:34;10.45;52.92
76785;SHT30;66893;44.316;0.092;2023-01-24T03:43:01;10.46;52.93
76785;SHT30;66893;44.316;0.092;2023-01-24T03:45:29;10.48;52.94
76785;SHT30;66893;44.316;0.092;2023-01-24T03:47:57;10.48;52.92
76785;SHT30;66893;44.316;0.092;2023-01-24T03:50:39;10.46;52.94
76785;SHT30;66893;44.316;0.092;2023-01-24T03:53:25;10.46;52.92
76785;SHT30;66893;44.316;0.092;2023-01-24T03:55:52;10.45;52.97
76785;SHT30;66893;44.316;0.092;2023-01-24T03:58:18;10.45;52.98
76785;SHT30;66893;44.316;0.092;2023-01-24T04:00:43;10.46;52.99
76785;SHT30;66893;44.316;0.092;2023-01-24T04:03:09;10.45;52.97
76785;SHT30;66893;44.316;0.092;2023-01-24T04:05:35;10.45;52.98
76785;SHT30;66893;44.316;0.092;2023-01-24T04:08:01;10.46;52.98
76785;SHT30;66893;44.316;0.092;2023-01-24T04:10:28;10.45;52.96
76785;SHT30;66893;44.316;0.092;2023-01-24T04:12:54;10.45;53.03
76785;SHT30;66893;44.316;0.092;2023-01-24T04:15:29;10.46;53.01
76785;SHT30;66893;44.316;0.092;2023-01-24T04:17:56;10.45;53.01
76785;SHT30;66893;44.316;0.092;2023-01-24T04:20:22;10.45;53.04
76785;SHT30;66893;44.316;0.092;2023-01-24T04:22:48;10.45;53.01
76785;SHT30;66893;44.316;0.092;2023-01-24T04:25:14;10.45;53.03
76785;SHT30;66893;44.316;0.092;2023-01-24T04:27:39;10.46;53.00
76785;SHT30;66893;44.316;0.092;2023-01-24T04:30:06;10.46;53.00
76785;SHT30;66893;44.316;0.092;2023-01-24T04:32:32;10.45;53.07
76785;SHT30;66893;44.316;0.092;2023-01-24T04:34:58;10.46;53.02
76785;SHT30;66893;44.316;0.092;2023-01-24T04:37:23;10.43;53.02
76785;SHT30;66893;44.316;0.092;2023-01-24T04:39:49;10.45;53.07
76785;SHT30;66893;44.316;0.092;2023-01-24T04:42:14;10.43;53.07
76785;SHT30;66893;44.316;0.092;2023-01-24T04:44:40;10.43;53.09
76785;SHT30;66893;44.316;0.092;2023-01-24T04:47:05;10.45;53.10
76785;SHT30;66893;44.316;0.092;2023-01-24T04:49:30;10.45;53.10
76785;SHT30;66893;44.316;0.092;2023-01-24T04:51:56;10.43;53.09
76785;SHT30;66893;44.316;0.092;2023-01-24T04:54:21;10.45;53.10
76785;SHT30;66893;44.316;0.092;2023-01-24T04:56:47;10.46;53.14
76785;SHT30;66893;44.316;0.092;2023-01-24T04:59:13;10.43;53.08
76785;SHT30;66893;44.316;0.092;2023-01-24T05:01:39;10.45;53.11
76785;SHT30;66893;44.316;0.092;2023-01-24T05:04:05;10.46;53.10
76785;SHT30;66893;44.316;0.092;2023-01-24T05:06:32;10.43;53.13
76785;SHT30;66893;44.316;0.092;2023-01-24T05:08:58;10.43;53.12
76785;SHT30;66893;44.316;0.092;2023-01-24T05:11:24;10.45;53.11
76785;SHT30;66893;44.316;0.092;2023-01-24T05:13:50;10.43;53.14
76785;SHT30;66893;44.316;0.092;2023-01-24T05:16:16;10.45;53.12
76785;SHT30;66893;44.316;0.092;2023-01-24T05:18:42;10.43;53.17
76785;SHT30;66893;44.316;0.092;2023-01-24T05:21:13;10.43;53.17
76785;SHT30;66893;44.316;0.092;2023-01-24T05:23:39;10.46;53.15
76785;SHT30;66893;44.316;0.092;2023-01-24T05:26:05;10.43;53.17
76785;SHT30;66893;44.316;0.092;2023-01-24T05:28:31;10.43;53.18
76785;SHT30;66893;44.316;0.092;2023-01-24T05:31:00;10.43;53.20
76785;SHT30;66893;44.316;0.092;2023-01-24T05:33:26;10.39;53.16
76785;SHT30;66893;44.316;0.092;2023-01-24T05:35:59;10.45;53.17
76785;SHT30;66893;44.316;0.092;2023-01-24T05:38:26;10.45;53.14
76785;SHT30;66893;44.316;0.092;2023-01-24T05:40:52;10.43;53.18
76785;SHT30;66893;44.316;0.092;2023-01-24T05:43:17;10.41;53.22
76785;SHT30;66893;44.316;0.092;2023-01-24T05:45:43;10.41;53.23
76785;SHT30;66893;44.316;0.092;2023-01-24T05:48:08;10.42;53.21
76785;SHT30;66893;44.316;0.092;2023-01-24T05:50:35;10.43;53.26
76785;SHT30;66893;44.316;0.092;2023-01-24T05:53:02;10.42;53.20
76785;SHT30;66893;44.316;0.092;2023-01-24T05:55:27;10.42;53.20
76785;SHT30;66893;44.316;0.092;2023-01-24T05:57:53;10.42;53.20
76785;SHT30;66893;44.316;0.092;2023-01-24T06:00:19;10.42;53.21
76785;SHT30;66893;44.316;0.092;2023-01-24T06:02:44;10.41;53.26
76785;SHT30;66893;44.316;0.092;2023-01-24T06:05:09;10.41;53.24
76785;SHT30;66893;44.316;0.092;2023-01-24T06:07:35;10.41;53.27
76785;SHT30;66893;44.316;0.092;2023-01-24T06:10:00;10.38;53.23
76785;SHT30;66893;44.316;0.092;2023-01-24T06:12:26;10.42;53.27
76785;SHT30;66893;44.316;0.092;2023-01-24T06:14:51;10.45;53.27
76785;SHT30;66893;44.316;0.092;2023-01-24T06:17:17;10.41;53.23
76785;SHT30;66893;44.316;0.092;2023-01-24T06:19:42;10.39;53.29
76785;SHT30;66893;44.316;0.092;2023-01-24T06:24:45;10.41;53.30
76785;SHT30;66893;44.316;0.092;2023-01-24T06:27:11;10.39;53.32
76785;SHT30;66893;44.316;0.092;2023-01-24T06:29:37;10.38;53.33
76785;SHT30;66893;44.316;0.092;2023-01-24T06:32:21;10.41;53.34
76785;SHT30;66893;44.316;0.092;2023-01-24T06:37:48;10.41;53.35
76785;SHT30;66893;44.316;0.092;2023-01-24T06:40:17;10.41;53.41
76785;SHT30;66893;44.316;0.092;2023-01-24T06:42:43;10.41;53.37
76785;SHT30;66893;44.316;0.092;2023-01-24T06:45:09;10.43;53.35
76785;SHT30;66893;44.316;0.092;2023-01-24T06:47:35;10.42;53.40
76785;SHT30;66893;44.316;0.092;2023-01-24T06:50:00;10.41;53.33
76785;SHT30;66893;44.316;0.092;2023-01-24T06:52:26;10.43;53.34
76785;SHT30;66893;44.316;0.092;2023-01-24T06:54:51;10.43;53.36
76785;SHT30;66893;44.316;0.092;2023-01-24T06:57:17;10.43;53.37
76785;SHT30;66893;44.316;0.092;2023-01-24T06:59:42;10.45;53.35
76785;SHT30;66893;44.316;0.092;2023-01-24T07:02:11;10.45;53.37
76785;SHT30;66893;44.316;0.092;2023-01-24T07:04:36;10.46;53.32
76785;SHT30;66893;44.316;0.092;2023-01-24T07:07:02;10.48;53.32
76785;SHT30;66893;44.316;0.092;2023-01-24T07:09:28;10.49;53.33
76785;SHT30;66893;44.316;0.092;2023-01-24T07:11:54;10.50;53.36
76785;SHT30;66893;44.316;0.092;2023-01-24T07:14:22;10.52;53.32
76785;SHT30;66893;44.316;0.092;2023-01-24T07:16:49;10.49;53.34
76785;SHT30;66893;44.316;0.092;2023-01-24T07:19:20;10.48;53.31
76785;SHT30;66893;44.316;0.092;2023-01-24T07:21:51;10.50;53.38
76785;SHT30;66893;44.316;0.092;2023-01-24T07:24:21;10.50;53.34
76785;SHT30;66893;44.316;0.092;2023-01-24T07:26:47;10.48;53.36
76785;SHT30;66893;44.316;0.092;2023-01-24T07:29:17;10.49;53.25
76785;SHT30;66893;44.316;0.092;2023-01-24T07:31:43;10.48;53.25
76785;SHT30;66893;44.316;0.092;2023-01-24T07:34:08;10.50;53.28
76785;SHT30;66893;44.316;0.092;2023-01-24T07:36:34;10.52;53.30
76785;SHT30;66893;44.316;0.092;2023-01-24T07:38:59;10.50;53.28
76785;SHT30;66893;44.316;0.092;2023-01-24T07:41:24;10.52;53.32
76785;SHT30;66893;44.316;0.092;2023-01-24T07:43:50;10.49;53.30
76785;SHT30;66893;44.316;0.092;2023-01-24T07:46:15;10.50;53.34
76785;SHT30;66893;44.316;0.092;2023-01-24T07:48:41;10.50;53.42
76785;SHT30;66893;44.316;0.092;2023-01-24T07:51:06;10.52;53.44
76785;SHT30;66893;44.316;0.092;2023-01-24T07:53:32;10.53;53.42
76785;SHT30;66893;44.316;0.092;2023-01-24T07:55:59;10.52;53.45
76785;SHT30;66893;44.316;0.092;2023-01-24T07:58:24;10.50;53.45
76785;SHT30;66893;44.316;0.092;2023-01-24T08:00:50;10.50;53.50
76785;SHT30;66893;44.316;0.092;2023-01-24T08:03:15;10.52;53.47
76785;SHT30;66893;44.316;0.092;2023-01-24T08:05:41;10.49;53.49
76785;SHT30;66893;44.316;0.092;2023-01-24T08:08:06;10.49;53.50
76785;SHT30;66893;44.316;0.092;2023-01-24T08:10:32;10.49;53.54
76785;SHT30;66893;44.316;0.092;2023-01-24T08:12:57;10.52;53.51
76785;SHT30;66893;44.316;0.092;2023-01-24T08:15:23;10.53;53.47
76785;SHT30;66893;44.316;0.092;2023-01-24T08:17:48;10.52;53.51
76785;SHT30;66893;44.316;0.092;2023-01-24T08:20:14;10.53;53.52
76785;SHT30;66893;44.316;0.092;2023-01-24T08:22:40;10.53;53.50
76785;SHT30;66893;44.316;0.092;2023-01-24T08:25:07;10.53;53.49
76785;SHT30;66893;44.316;0.092;2023-01-24T08:27:33;10.53;53.47
76785;SHT30;66893;44.316;0.092;2023-01-24T08:29:58;10.53;53.52
76785;SHT30;66893;44.316;0.092;2023-01-24T08:32:23;10.53;53.49
76785;SHT30;66893;44.316;0.092;2023-01-24T08:34:49;10.53;53.51
76785;SHT30;66893;44.316;0.092;2023-01-24T08:37:15;10.55;53.50
76785;SHT30;66893;44.316;0.092;2023-01-24T08:39:42;10.53;53.45
76785;SHT30;66893;44.316;0.092;2023-01-24T08:42:09;10.56;53.48
76785;SHT30;66893;44.316;0.092;2023-01-24T08:44:35;10.55;53.50
76785;SHT30;66893;44.316;0.092;2023-01-24T08:47:00;10.55;53.47
76785;SHT30;66893;44.316;0.092;2023-01-24T08:49:26;10.57;53.46
76785;SHT30;66893;44.316;0.092;2023-01-24T08:51:51;10.55;53.53
76785;SHT30;66893;44.316;0.092;2023-01-24T08:54:25;10.57;53.44
76785;SHT30;66893;44.316;0.092;2023-01-24T08:56:51;10.59;53.45
76785;SHT30;66893;44.316;0.092;2023-01-24T08:59:16;10.59;53.43
76785;SHT30;66893;44.316;0.092;2023-01-24T09:01:42;10.59;53.47
76785;SHT30;66893;44.316;0.092;2023-01-24T09:04:08;10.62;53.38
76785;SHT30;66893;44.316;0.092;2023-01-24T09:06:34;10.63;53.48
76785;SHT30;66893;44.316;0.092;2023-01-24T09:08:59;10.62;53.44
76785;SHT30;66893;44.316;0.092;2023-01-24T09:11:25;10.62;53.44
76785;SHT30;66893;44.316;0.092;2023-01-24T09:13:51;10.66;53.51
76785;SHT30;66893;44.316;0.092;2023-01-24T09:16:16;10.64;53.28
76785;SHT30;66893;44.316;0.092;2023-01-24T09:18:42;10.60;53.26
76785;SHT30;66893;44.316;0.092;2023-01-24T09:21:07;10.57;53.40
76785;SHT30;66893;44.316;0.092;2023-01-24T09:23:32;10.59;53.40
76785;SHT30;66893;44.316;0.092;2023-01-24T09:25:58;10.57;53.45
76785;SHT30;66893;44.316;0.092;2023-01-24T09:28:23;10.62;53.42
76785;SHT30;66893;44.316;0.092;2023-01-24T09:30:50;10.63;53.41
76785;SHT30;66893;44.316;0.092;2023-01-24T09:33:17;10.63;53.45
76785;SHT30;66893;44.316;0.092;2023-01-24T09:35:51;10.66;53.49
76785;SHT30;66893;44.316;0.092;2023-01-24T09:38:17;10.67;53.50
76785;SHT30;66893;44.316;0.092;2023-01-24T09:40:53;10.71;53.50
76785;SHT30;66893;44.316;0.092;2023-01-24T09:43:51;10.76;53.51
76785;SHT30;66893;44.316;0.092;2023-01-24T09:51:59;10.83;53.44
76785;SHT30;66893;44.316;0.092;2023-01-24T09:54:38;10.85;53.50
76785;SHT30;66893;44.316;0.092;2023-01-24T09:57:16;10.87;53.50
76785;SHT30;66893;44.316;0.092;2023-01-24T09:59:46;10.89;53.46
76785;SHT30;66893;44.316;0.092;2023-01-24T10:02:20;10.90;53.46
76785;SHT30;66893;44.316;0.092;2023-01-24T10:04:47;10.94;53.46
76785;SHT30;66893;44.316;0.092;2023-01-24T10:10:03;10.98;53.41
76785;SHT30;66893;44.316;0.092;2023-01-24T10:13:02;11.04;53.40
76785;SHT30;66893;44.316;0.092;2023-01-24T10:24:28;11.14;53.36
76785;SHT30;66893;44.316;0.092;2023-01-24T10:26:56;11.15;53.40
76785;SHT30;66893;44.316;0.092;2023-01-24T10:29:27;11.18;53.23
76785;SHT30;66893;44.316;0.092;2023-01-24T10:32:00;11.17;53.24
76785;SHT30;66893;44.316;0.092;2023-01-24T10:36:58;11.22;53.31
76785;SHT30;66893;44.316;0.092;2023-01-24T10:39:26;11.24;53.30
76785;SHT30;66893;44.316;0.092;2023-01-24T10:41:53;11.26;53.30
76785;SHT30;66893;44.316;0.092;2023-01-24T10:44:25;11.32;53.30
76785;SHT30;66893;44.316;0.092;2023-01-24T10:47:12;11.31;53.29
76785;SHT30;66893;44.316;0.092;2023-01-24T10:49:41;11.34;53.31
76785;SHT30;66893;44.316;0.092;2023-01-24T10:52:20;11.39;53.28
76785;SHT30;66893;44.316;0.092;2023-01-24T10:54:52;11.40;53.25
76785;SHT30;66893;44.316;0.092;2023-01-24T10:59:50;11.49;53.25
76785;SHT30;66893;44.316;0.092;2023-01-24T11:02:22;11.52;53.27
76785;SHT30;66893;44.316;0.092;2023-01-24T11:04:59;11.56;53.23
76785;SHT30;66893;44.316;0.092;2023-01-24T11:07:32;11.61;53.17
76785;SHT30;66893;44.316;0.092;2023-01-24T11:10:36;11.67;53.11
76785;SHT30;66893;44.316;0.092;2023-01-24T11:13:29;11.74;53.08
76785;SHT30;66893;44.316;0.092;2023-01-24T11:16:03;11.80;53.04
76785;SHT30;66893;44.316;0.092;2023-01-24T11:18:29;11.89;53.05
76785;SHT30;66893;44.316;0.092;2023-01-24T11:21:14;11.94;52.94
76785;SHT30;66893;44.316;0.092;2023-01-24T11:23:41;11.97;52.94
76785;SHT30;66893;44.316;0.092;2023-01-24T11:26:27;12.05;52.86
76785;SHT30;66893;44.316;0.092;2023-01-24T11:29:05;12.11;52.83
76785;SHT30;66893;44.316;0.092;2023-01-24T11:31:38;12.17;52.84
76785;SHT30;66893;44.316;0.092;2023-01-24T11:39:49;12.29;52.74
76785;SHT30;66893;44.316;0.092;2023-01-24T11:42:43;12.36;52.75
76785;SHT30;66893;44.316;0.092;2023-01-24T11:45:36;12.39;52.73
76785;SHT30;66893;44.316;0.092;2023-01-24T11:48:20;12.45;52.69
76785;SHT30;66893;44.316;0.092;2023-01-24T11:51:21;12.57;52.63
76785;SHT30;66893;44.316;0.092;2023-01-24T11:54:08;12.67;52.65
76785;SHT30;66893;44.316;0.092;2023-01-24T12:00:32;12.90;52.35
76785;SHT30;66893;44.316;0.092;2023-01-24T12:08:59;13.03;52.61
76785;SHT30;66893;44.316;0.092;2023-01-24T12:11:31;13.06;52.55
76785;SHT30;66893;44.316;0.092;2023-01-24T12:17:23;13.19;52.51
76785;SHT30;66893;44.316;0.092;2023-01-24T12:22:28;13.28;52.33
76785;SHT30;66893;44.316;0.092;2023-01-24T12:27:36;13.32;52.25
76785;SHT30;66893;44.316;0.092;2023-01-24T12:32:59;13.38;52.09
76785;SHT30;66893;44.316;0.092;2023-01-24T12:35:41;13.41;52.14
76785;SHT30;66893;44.316;0.092;2023-01-24T12:49:44;13.31;51.89
76785;SHT30;66893;44.316;0.092;2023-01-24T12:59:49;13.22;51.81
76785;SHT30;66893;44.316;0.092;2023-01-24T13:13:35;13.15;51.78
76785;SHT30;66893;44.316;0.092;2023-01-24T13:18:56;13.11;51.78
76785;SHT30;66893;44.316;0.092;2023-01-24T13:21:51;13.10;51.78
76785;SHT30;66893;44.316;0.092;2023-01-24T13:29:50;13.08;51.70
76785;SHT30;66893;44.316;0.092;2023-01-24T13:32:19;13.06;51.69
76785;SHT30;66893;44.316;0.092;2023-01-24T13:34:58;13.06;51.66
76785;SHT30;66893;44.316;0.092;2023-01-24T13:37:26;13.06;51.62
76785;SHT30;66893;44.316;0.092;2023-01-24T13:40:06;13.03;51.59
76785;SHT30;66893;44.316;0.092;2023-01-24T13:42:36;13.01;51.57
76785;SHT30;66893;44.316;0.092;2023-01-24T13:47:49;13.01;51.57
76785;SHT30;66893;44.316;0.092;2023-01-24T13:50:21;12.97;51.48
76785;SHT30;66893;44.316;0.092;2023-01-24T13:52:54;12.99;51.50
76785;SHT30;66893;44.316;0.092;2023-01-24T13:58:34;12.99;51.56
76785;SHT30;66893;44.316;0.092;2023-01-24T14:03:36;12.96;51.52
76785;SHT30;66893;44.316;0.092;2023-01-24T14:19:23;12.94;51.44
76785;SHT30;66893;44.316;0.092;2023-01-24T14:24:36;12.93;51.40
76785;SHT30;66893;44.316;0.092;2023-01-24T14:27:21;12.93;51.39
76785;SHT30;66893;44.316;0.092;2023-01-24T14:29:50;12.89;51.37
76785;SHT30;66893;44.316;0.092;2023-01-24T14:32:23;12.91;51.35
76785;SHT30;66893;44.316;0.092;2023-01-24T14:35:22;12.90;51.30
76785;SHT30;66893;44.316;0.092;2023-01-24T14:37:51;12.91;51.26
76785;SHT30;66893;44.316;0.092;2023-01-24T14:40:25;12.90;51.27
76785;SHT30;66893;44.316;0.092;2023-01-24T14:42:58;12.90;51.24
76785;SHT30;66893;44.316;0.092;2023-01-24T14:45:27;12.87;51.29
76785;SHT30;66893;44.316;0.092;2023-01-24T14:47:54;12.87;51.24
76785;SHT30;66893;44.316;0.092;2023-01-24T14:50:29;12.87;51.19
76785;SHT30;66893;44.316;0.092;2023-01-24T14:52:59;12.86;51.22
76785;SHT30;66893;44.316;0.092;2023-01-24T14:55:38;12.84;51.17
76785;SHT30;66893;44.316;0.092;2023-01-24T14:58:35;12.86;51.18
76785;SHT30;66893;44.316;0.092;2023-01-24T15:01:02;12.86;51.11
76785;SHT30;66893;44.316;0.092;2023-01-24T15:03:30;12.82;50.63
76785;SHT30;66893;44.316;0.092;2023-01-24T15:06:04;12.70;50.35
76785;SHT30;66893;44.316;0.092;2023-01-24T15:08:35;12.69;50.42
76785;SHT30;66893;44.316;0.092;2023-01-24T15:11:06;12.66;50.45
76785;SHT30;66893;44.316;0.092;2023-01-24T15:13:42;12.66;50.53
76785;SHT30;66893;44.316;0.092;2023-01-24T15:16:16;12.69;50.52
76785;SHT30;66893;44.316;0.092;2023-01-24T15:21:39;12.67;50.54
76785;SHT30;66893;44.316;0.092;2023-01-24T15:26:50;12.67;50.63
76785;SHT30;66893;44.316;0.092;2023-01-24T15:32:17;12.67;50.65
76785;SHT30;66893;44.316;0.092;2023-01-24T15:34:43;12.67;50.47
76785;SHT30;66893;44.316;0.092;2023-01-24T15:37:12;12.64;50.45
76785;SHT30;66893;44.316;0.092;2023-01-24T15:39:38;12.64;50.48
76785;SHT30;66893;44.316;0.092;2023-01-24T15:42:15;12.66;50.55
76785;SHT30;66893;44.316;0.092;2023-01-24T15:45:01;12.66;50.57
76785;SHT30;66893;44.316;0.092;2023-01-24T15:47:26;12.64;50.54
76785;SHT30;66893;44.316;0.092;2023-01-24T15:50:21;12.67;50.52
76785;SHT30;66893;44.316;0.092;2023-01-24T15:53:26;12.66;50.54
76785;SHT30;66893;44.316;0.092;2023-01-24T15:55:54;12.66;50.52
76785;SHT30;66893;44.316;0.092;2023-01-24T15:58:20;12.67;50.47
76785;SHT30;66893;44.316;0.092;2023-01-24T16:00:58;12.69;50.43
76785;SHT30;66893;44.316;0.092;2023-01-24T16:03:24;12.72;50.43
76785;SHT30;66893;44.316;0.092;2023-01-24T16:05:50;12.72;50.39
76785;SHT30;66893;44.316;0.092;2023-01-24T16:08:16;12.73;50.32
76785;SHT30;66893;44.316;0.092;2023-01-24T16:10:43;12.73;50.36
76785;SHT30;66893;44.316;0.092;2023-01-24T16:13:41;12.76;50.33
76785;SHT30;66893;44.316;0.092;2023-01-24T16:16:10;12.75;50.25
76785;SHT30;66893;44.316;0.092;2023-01-24T16:18:37;12.77;50.29
76785;SHT30;66893;44.316;0.092;2023-01-24T16:21:03;12.76;50.25
76785;SHT30;66893;44.316;0.092;2023-01-24T16:23:29;12.73;50.22
76785;SHT30;66893;44.316;0.092;2023-01-24T16:25:56;12.76;50.30
76785;SHT30;66893;44.316;0.092;2023-01-24T16:28:25;12.75;50.26
76785;SHT30;66893;44.316;0.092;2023-01-24T16:30:52;12.75;50.27
76785;SHT30;66893;44.316;0.092;2023-01-24T16:33:19;12.70;50.27
76785;SHT30;66893;44.316;0.092;2023-01-24T16:35:46;12.70;50.28
76785;SHT30;66893;44.316;0.092;2023-01-24T16:38:13;12.70;50.28
76785;SHT30;66893;44.316;0.092;2023-01-24T16:40:39;12.69;50.29
76785;SHT30;66893;44.316;0.092;2023-01-24T16:43:06;12.66;50.27
76785;SHT30;66893;44.316;0.092;2023-01-24T16:45:33;12.64;50.30
76785;SHT30;66893;44.316;0.092;2023-01-24T16:47:59;12.63;50.35
76785;SHT30;66893;44.316;0.092;2023-01-24T16:50:25;12.62;50.29
76785;SHT30;66893;44.316;0.092;2023-01-24T16:52:52;12.57;50.29
76785;SHT30;66893;44.316;0.092;2023-01-24T16:55:18;12.56;50.33
76785;SHT30;66893;44.316;0.092;2023-01-24T16:57:44;12.55;50.33
76785;SHT30;66893;44.316;0.092;2023-01-24T17:00:11;12.53;50.32
76785;SHT30;66893;44.316;0.092;2023-01-24T17:02:38;12.50;50.35
76785;SHT30;66893;44.316;0.092;2023-01-24T17:05:04;12.48;50.32
76785;SHT30;66893;44.316;0.092;2023-01-24T17:07:29;12.44;50.32
76785;SHT30;66893;44.316;0.092;2023-01-24T17:09:55;12.45;50.31
76785;SHT30;66893;44.316;0.092;2023-01-24T17:12:20;12.39;50.31
76785;SHT30;66893;44.316;0.092;2023-01-24T17:14:45;12.35;50.32
76785;SHT30;66893;44.316;0.092;2023-01-24T17:17:11;12.36;50.38
76785;SHT30;66893;44.316;0.092;2023-01-24T17:19:37;12.34;50.38
76785;SHT30;66893;44.316;0.092;2023-01-24T17:22:02;12.27;50.43
76785;SHT30;66893;44.316;0.092;2023-01-24T17:24:28;12.25;50.44
76785;SHT30;66893;44.316;0.092;2023-01-24T17:26:54;12.24;50.48
76785;SHT30;66893;44.316;0.092;2023-01-24T17:29:20;12.20;50.47
76785;SHT30;66893;44.316;0.092;2023-01-24T17:31:51;12.18;50.48
76785;SHT30;66893;44.316;0.092;2023-01-24T17:34:16;12.17;50.57
76785;SHT30;66893;44.316;0.092;2023-01-24T17:36:42;12.18;50.53
76785;SHT30;66893;44.316;0.092;2023-01-24T17:39:07;12.13;50.53
76785;SHT30;66893;44.316;0.092;2023-01-24T17:41:33;12.11;50.50
76785;SHT30;66893;44.316;0.092;2023-01-24T17:43:58;12.08;50.57
76785;SHT30;66893;44.316;0.092;2023-01-24T17:46:24;12.05;50.55
76785;SHT30;66893;44.316;0.092;2023-01-24T17:48:50;12.04;50.54
76785;SHT30;66893;44.316;0.092;2023-01-24T17:51:17;12.02;50.51
76785;SHT30;66893;44.316;0.092;2023-01-24T17:53:44;12.00;50.50
76785;SHT30;66893;44.316;0.092;2023-01-24T17:56:10;12.00;50.53
76785;SHT30;66893;44.316;0.092;2023-01-24T17:58:37;11.95;50.45
76785;SHT30;66893;44.316;0.092;2023-01-24T18:01:03;11.93;50.51